sensor_id;sensor_type;location;lat;lon;timestamp;pressure;altitude;pressure_sealevel;temperature;humidity
65280;BME280;51878;55.748;48.742;2023-06-22T00:02:32;98994.34;;;7.02;100.00
65280;BME280;51878;55.748;48.742;2023-06-22T00:07:36;99014.16;;;7.18;100.00
65280;BME280;51878;55.748;48.742;2023-06-22T00:12:39;98989.78;;;7.03;100.00
65280;BME280;51878;55.748;48.742;2023-06-22T00:17:41;99024.06;;;7.26;100.00
65280;BME280;51878;55.748;48.742;2023-06-22T00:22:44;99037.63;;;7.40;100.00
65280;BME280;51878;55.748;48.742;2023-06-22T00:27:46;99034.50;;;7.29;100.00
65280;BME280;51878;55.748;48.742;2023-06-22T00:32:49;98969.47;;;6.92;100.00
65280;BME280;51878;55.748;48.742;2023-06-22T00:37:51;99009.66;;;7.10;100.00
65280;BME280;51878;55.748;48.742;2023-06-22T00:42:55;99008.78;;;7.10;100.00
65280;BME280;51878;55.748;48.742;2023-06-22T00:48:01;98965.63;;;6.78;100.00
65280;BME280;51878;55.748;48.742;2023-06-22T00:53:08;99020.22;;;7.12;100.00
65280;BME280;51878;55.748;48.742;2023-06-22T00:58:12;99058.59;;;7.30;100.00
65280;BME280;51878;55.748;48.742;2023-06-22T01:03:14;99044.38;;;7.36;100.00
65280;BME280;51878;55.748;48.742;2023-06-22T01:13:53;99035.31;;;7.29;100.00
65280;BME280;51878;55.748;48.742;2023-06-22T01:24:27;99030.16;;;7.51;100.00
65280;BME280;51878;55.748;48.742;2023-06-22T01:29:33;99052.88;;;7.88;100.00
65280;BME280;51878;55.748;48.742;2023-06-22T01:34:37;98998.84;;;7.73;100.00
65280;BME280;51878;55.748;48.742;2023-06-22T01:39:42;99050.88;;;8.04;100.00
65280;BME280;51878;55.748;48.742;2023-06-22T01:44:45;99065.88;;;8.30;100.00
65280;BME280;51878;55.748;48.742;2023-06-22T01:49:48;99043.13;;;8.24;100.00
65280;BME280;51878;55.748;48.742;2023-06-22T01:54:53;99050.88;;;8.51;100.00
65280;BME280;51878;55.748;48.742;2023-06-22T02:00:11;99084.38;;;8.79;100.00
65280;BME280;51878;55.748;48.742;2023-06-22T02:05:18;98996.28;;;8.40;100.00
65280;BME280;51878;55.748;48.742;2023-06-22T02:10:23;99081.88;;;9.07;100.00
65280;BME280;51878;55.748;48.742;2023-06-22T02:15:26;99082.06;;;9.21;100.00
65280;BME280;51878;55.748;48.742;2023-06-22T02:20:28;99078.53;;;9.20;100.00
65280;BME280;51878;55.748;48.742;2023-06-22T02:25:31;99076.66;;;9.36;100.00
65280;BME280;51878;55.748;48.742;2023-06-22T02:30:37;99045.78;;;9.30;100.00
65280;BME280;51878;55.748;48.742;2023-06-22T02:35:39;99080.72;;;9.61;100.00
65280;BME280;51878;55.748;48.742;2023-06-22T02:40:43;99052.47;;;9.49;100.00
65280;BME280;51878;55.748;48.742;2023-06-22T02:45:45;99063.91;;;9.66;100.00
65280;BME280;51878;55.748;48.742;2023-06-22T02:50:47;99062.94;;;9.73;100.00
65280;BME280;51878;55.748;48.742;2023-06-22T02:55:50;99083.38;;;9.76;100.00
65280;BME280;51878;55.748;48.742;2023-06-22T03:00:52;99078.81;;;9.77;100.00
65280;BME280;51878;55.748;48.742;2023-06-22T03:05:55;99067.72;;;9.71;100.00
65280;BME280;51878;55.748;48.742;2023-06-22T03:10:57;99057.50;;;9.52;100.00
65280;BME280;51878;55.748;48.742;2023-06-22T03:15:59;99083.06;;;9.49;100.00
65280;BME280;51878;55.748;48.742;2023-06-22T03:21:04;99064.22;;;9.41;100.00
65280;BME280;51878;55.748;48.742;2023-06-22T03:26:08;99042.44;;;9.13;100.00
65280;BME280;51878;55.748;48.742;2023-06-22T03:31:10;99089.91;;;9.30;100.00
65280;BME280;51878;55.748;48.742;2023-06-22T03:36:13;99103.06;;;9.34;100.00
65280;BME280;51878;55.748;48.742;2023-06-22T03:41:16;99045.97;;;8.99;100.00
65280;BME280;51878;55.748;48.742;2023-06-22T03:46:18;99107.34;;;9.43;100.00
65280;BME280;51878;55.748;48.742;2023-06-22T03:51:22;99075.09;;;9.26;100.00
65280;BME280;51878;55.748;48.742;2023-06-22T03:56:24;99093.16;;;9.41;100.00
65280;BME280;51878;55.748;48.742;2023-06-22T04:01:26;99116.00;;;9.53;100.00
65280;BME280;51878;55.748;48.742;2023-06-22T04:06:29;99092.72;;;9.37;100.00
65280;BME280;51878;55.748;48.742;2023-06-22T04:11:31;99083.81;;;9.43;100.00
65280;BME280;51878;55.748;48.742;2023-06-22T04:16:33;99109.94;;;9.66;100.00
65280;BME280;51878;55.748;48.742;2023-06-22T04:21:35;99117.91;;;9.89;100.00
65280;BME280;51878;55.748;48.742;2023-06-22T04:26:39;99121.16;;;10.21;100.00
65280;BME280;51878;55.748;48.742;2023-06-22T04:31:43;99089.75;;;10.26;100.00
65280;BME280;51878;55.748;48.742;2023-06-22T04:36:45;99108.00;;;10.54;100.00
65280;BME280;51878;55.748;48.742;2023-06-22T04:41:48;99065.00;;;10.29;100.00
65280;BME280;51878;55.748;48.742;2023-06-22T04:46:58;99098.06;;;10.89;100.00
65280;BME280;51878;55.748;48.742;2023-06-22T04:52:07;99128.50;;;11.54;100.00
65280;BME280;51878;55.748;48.742;2023-06-22T04:57:09;99097.78;;;11.95;100.00
65280;BME280;51878;55.748;48.742;2023-06-22T05:02:12;99115.88;;;12.56;96.06
65280;BME280;51878;55.748;48.742;2023-06-22T05:07:14;99112.56;;;12.94;87.07
65280;BME280;51878;55.748;48.742;2023-06-22T05:12:16;99112.97;;;12.98;83.33
65280;BME280;51878;55.748;48.742;2023-06-22T05:17:19;99093.50;;;12.61;81.83
65280;BME280;51878;55.748;48.742;2023-06-22T05:22:21;99125.94;;;12.89;83.38
65280;BME280;51878;55.748;48.742;2023-06-22T05:27:26;99131.19;;;12.91;83.63
65280;BME280;51878;55.748;48.742;2023-06-22T05:32:28;99108.75;;;13.29;82.53
65280;BME280;51878;55.748;48.742;2023-06-22T05:37:30;99123.56;;;13.59;76.63
65280;BME280;51878;55.748;48.742;2023-06-22T05:42:33;99097.13;;;13.67;75.12
65280;BME280;51878;55.748;48.742;2023-06-22T05:47:35;99125.41;;;14.17;70.47
65280;BME280;51878;55.748;48.742;2023-06-22T05:52:37;99100.38;;;13.89;68.34
65280;BME280;51878;55.748;48.742;2023-06-22T05:57:39;99124.06;;;14.33;65.81
65280;BME280;51878;55.748;48.742;2023-06-22T06:02:42;99094.81;;;14.47;62.45
65280;BME280;51878;55.748;48.742;2023-06-22T06:07:46;99129.00;;;15.06;61.96
65280;BME280;51878;55.748;48.742;2023-06-22T06:12:52;99125.19;;;15.33;58.21
65280;BME280;51878;55.748;48.742;2023-06-22T06:17:54;99125.81;;;15.72;56.48
65280;BME280;51878;55.748;48.742;2023-06-22T06:22:57;99106.06;;;15.51;53.74
65280;BME280;51878;55.748;48.742;2023-06-22T06:27:59;99050.28;;;14.78;53.89
65280;BME280;51878;55.748;48.742;2023-06-22T06:33:01;99044.00;;;14.46;55.07
65280;BME280;51878;55.748;48.742;2023-06-22T06:38:04;99119.19;;;14.74;55.51
65280;BME280;51878;55.748;48.742;2023-06-22T06:43:06;99126.91;;;14.77;54.16
65280;BME280;51878;55.748;48.742;2023-06-22T06:48:08;99129.03;;;14.75;54.70
65280;BME280;51878;55.748;48.742;2023-06-22T06:53:11;99114.63;;;14.67;55.87
65280;BME280;51878;55.748;48.742;2023-06-22T06:58:16;99117.44;;;15.29;56.78
65280;BME280;51878;55.748;48.742;2023-06-22T07:03:18;99059.19;;;15.73;53.77
65280;BME280;51878;55.748;48.742;2023-06-22T07:08:20;99096.94;;;16.66;52.74
65280;BME280;51878;55.748;48.742;2023-06-22T07:13:22;99042.72;;;17.22;48.73
65280;BME280;51878;55.748;48.742;2023-06-22T07:18:27;99073.50;;;18.05;46.27
65280;BME280;51878;55.748;48.742;2023-06-22T07:23:29;99096.06;;;18.07;44.13
65280;BME280;51878;55.748;48.742;2023-06-22T07:28:31;99068.06;;;17.53;44.31
65280;BME280;51878;55.748;48.742;2023-06-22T07:33:38;99111.25;;;17.74;46.48
65280;BME280;51878;55.748;48.742;2023-06-22T07:38:41;99098.59;;;16.98;50.82
65280;BME280;51878;55.748;48.742;2023-06-22T07:43:43;99144.97;;;15.03;57.48
65280;BME280;51878;55.748;48.742;2023-06-22T07:48:45;99058.88;;;13.41;61.93
65280;BME280;51878;55.748;48.742;2023-06-22T07:53:48;99104.75;;;13.18;70.42
65280;BME280;51878;55.748;48.742;2023-06-22T07:58:50;99134.03;;;13.56;70.84
65280;BME280;51878;55.748;48.742;2023-06-22T08:03:52;99026.75;;;13.57;68.65
65280;BME280;51878;55.748;48.742;2023-06-22T08:08:54;99127.94;;;15.07;70.96
65280;BME280;51878;55.748;48.742;2023-06-22T08:13:58;99139.34;;;15.85;67.99
65280;BME280;51878;55.748;48.742;2023-06-22T08:19:01;99131.03;;;16.10;67.08
65280;BME280;51878;55.748;48.742;2023-06-22T08:24:03;99149.75;;;15.95;62.26
65280;BME280;51878;55.748;48.742;2023-06-22T08:29:06;99113.97;;;15.78;65.30
65280;BME280;51878;55.748;48.742;2023-06-22T08:34:08;99133.09;;;15.96;66.23
65280;BME280;51878;55.748;48.742;2023-06-22T08:39:13;99123.06;;;16.08;64.72
65280;BME280;51878;55.748;48.742;2023-06-22T08:44:18;99104.41;;;16.47;63.38
65280;BME280;51878;55.748;48.742;2023-06-22T08:49:20;99121.88;;;16.77;60.36
65280;BME280;51878;55.748;48.742;2023-06-22T08:54:23;99040.06;;;16.45;56.39
65280;BME280;51878;55.748;48.742;2023-06-22T08:59:25;99118.00;;;16.96;54.31
65280;BME280;51878;55.748;48.742;2023-06-22T09:04:27;99119.69;;;17.21;55.64
65280;BME280;51878;55.748;48.742;2023-06-22T09:09:30;99090.13;;;17.46;52.33
65280;BME280;51878;55.748;48.742;2023-06-22T09:14:32;99075.50;;;18.22;50.93
65280;BME280;51878;55.748;48.742;2023-06-22T09:19:34;99099.75;;;18.87;47.38
65280;BME280;51878;55.748;48.742;2023-06-22T09:24:36;99101.09;;;18.73;45.33
65280;BME280;51878;55.748;48.742;2023-06-22T09:29:39;99101.03;;;18.68;46.84
65280;BME280;51878;55.748;48.742;2023-06-22T09:34:41;99080.09;;;18.04;49.17
65280;BME280;51878;55.748;48.742;2023-06-22T09:39:43;99139.09;;;17.19;56.86
65280;BME280;51878;55.748;48.742;2023-06-22T09:44:46;99134.78;;;16.58;62.99
65280;BME280;51878;55.748;48.742;2023-06-22T09:49:48;99103.28;;;15.76;66.65
65280;BME280;51878;55.748;48.742;2023-06-22T09:54:50;99132.44;;;15.39;70.75
65280;BME280;51878;55.748;48.742;2023-06-22T09:59:52;99126.22;;;15.75;70.01
65280;BME280;51878;55.748;48.742;2023-06-22T10:04:55;99127.22;;;15.81;72.21
65280;BME280;51878;55.748;48.742;2023-06-22T10:09:57;99108.09;;;16.11;70.63
65280;BME280;51878;55.748;48.742;2023-06-22T10:14:59;99140.69;;;16.43;66.02
65280;BME280;51878;55.748;48.742;2023-06-22T10:20:04;99105.84;;;15.53;65.01
65280;BME280;51878;55.748;48.742;2023-06-22T10:25:13;99124.84;;;15.84;62.47
65280;BME280;51878;55.748;48.742;2023-06-22T10:30:17;99131.53;;;15.88;55.72
65280;BME280;51878;55.748;48.742;2023-06-22T10:35:19;99080.19;;;16.21;55.67
65280;BME280;51878;55.748;48.742;2023-06-22T10:40:22;99115.31;;;17.72;53.40
65280;BME280;51878;55.748;48.742;2023-06-22T10:45:24;99081.00;;;18.84;47.89
65280;BME280;51878;55.748;48.742;2023-06-22T10:50:26;99091.19;;;20.28;43.59
65280;BME280;51878;55.748;48.742;2023-06-22T10:55:28;99058.81;;;21.04;38.65
65280;BME280;51878;55.748;48.742;2023-06-22T11:00:41;99096.06;;;21.44;39.90
65280;BME280;51878;55.748;48.742;2023-06-22T11:05:43;99098.88;;;21.50;37.92
65280;BME280;51878;55.748;48.742;2023-06-22T11:10:45;98972.81;;;20.60;40.07
65280;BME280;51878;55.748;48.742;2023-06-22T11:15:47;99062.53;;;21.73;38.99
65280;BME280;51878;55.748;48.742;2023-06-22T11:20:52;99035.81;;;21.31;39.00
65280;BME280;51878;55.748;48.742;2023-06-22T11:25:55;99031.22;;;20.62;39.70
65280;BME280;51878;55.748;48.742;2023-06-22T11:30:57;99061.00;;;20.65;40.32
65280;BME280;51878;55.748;48.742;2023-06-22T11:36:01;99065.59;;;19.61;44.65
65280;BME280;51878;55.748;48.742;2023-06-22T11:41:03;99078.47;;;18.83;49.32
65280;BME280;51878;55.748;48.742;2023-06-22T11:46:05;99093.19;;;17.50;56.30
65280;BME280;51878;55.748;48.742;2023-06-22T11:51:08;99057.06;;;16.47;61.43
65280;BME280;51878;55.748;48.742;2023-06-22T11:56:10;99088.28;;;15.97;64.12
65280;BME280;51878;55.748;48.742;2023-06-22T12:01:12;99068.34;;;15.60;70.03
65280;BME280;51878;55.748;48.742;2023-06-22T12:06:17;99094.81;;;15.41;70.78
65280;BME280;51878;55.748;48.742;2023-06-22T12:11:19;99059.69;;;15.44;72.33
65280;BME280;51878;55.748;48.742;2023-06-22T12:16:25;99082.84;;;15.42;69.60
65280;BME280;51878;55.748;48.742;2023-06-22T12:21:27;99033.50;;;15.00;71.76
65280;BME280;51878;55.748;48.742;2023-06-22T12:26:30;98968.41;;;14.60;77.37
65280;BME280;51878;55.748;48.742;2023-06-22T12:31:33;99059.69;;;15.44;75.09
65280;BME280;51878;55.748;48.742;2023-06-22T12:36:35;99087.78;;;15.33;70.05
65280;BME280;51878;55.748;48.742;2023-06-22T12:41:37;99040.47;;;15.14;70.26
65280;BME280;51878;55.748;48.742;2023-06-22T12:46:40;98984.34;;;15.37;68.52
65280;BME280;51878;55.748;48.742;2023-06-22T12:51:43;99083.19;;;17.55;62.35
65280;BME280;51878;55.748;48.742;2023-06-22T12:56:46;99068.78;;;19.31;52.80
65280;BME280;51878;55.748;48.742;2023-06-22T13:01:48;99053.78;;;20.91;45.31
65280;BME280;51878;55.748;48.742;2023-06-22T13:06:51;99080.94;;;23.59;41.00
65280;BME280;51878;55.748;48.742;2023-06-22T13:11:53;99067.91;;;25.38;35.05
65280;BME280;51878;55.748;48.742;2023-06-22T13:16:55;99051.50;;;24.38;34.43
65280;BME280;51878;55.748;48.742;2023-06-22T13:21:58;99048.81;;;25.31;33.31
65280;BME280;51878;55.748;48.742;2023-06-22T13:27:01;99043.94;;;26.71;29.53
65280;BME280;51878;55.748;48.742;2023-06-22T13:32:03;99074.84;;;25.88;28.78
65280;BME280;51878;55.748;48.742;2023-06-22T13:37:08;99070.34;;;27.80;27.62
65280;BME280;51878;55.748;48.742;2023-06-22T13:42:11;99052.59;;;30.11;25.73
65280;BME280;51878;55.748;48.742;2023-06-22T13:47:13;99070.38;;;31.19;23.36
65280;BME280;51878;55.748;48.742;2023-06-22T13:52:16;99073.56;;;29.82;24.02
65280;BME280;51878;55.748;48.742;2023-06-22T13:57:18;99012.16;;;28.15;25.43
65280;BME280;51878;55.748;48.742;2023-06-22T14:02:20;99029.38;;;26.22;28.43
65280;BME280;51878;55.748;48.742;2023-06-22T14:07:22;99024.97;;;24.32;30.87
65280;BME280;51878;55.748;48.742;2023-06-22T14:12:26;99051.44;;;24.53;32.78
65280;BME280;51878;55.748;48.742;2023-06-22T14:17:28;99057.47;;;25.53;31.43
65280;BME280;51878;55.748;48.742;2023-06-22T14:22:30;99056.03;;;26.42;31.00
65280;BME280;51878;55.748;48.742;2023-06-22T14:27:32;99044.47;;;27.06;29.90
65280;BME280;51878;55.748;48.742;2023-06-22T14:32:35;99049.50;;;27.50;28.24
65280;BME280;51878;55.748;48.742;2023-06-22T14:37:37;98932.78;;;26.79;28.36
65280;BME280;51878;55.748;48.742;2023-06-22T14:42:39;99014.06;;;26.76;28.13
65280;BME280;51878;55.748;48.742;2023-06-22T14:47:42;98994.16;;;26.69;28.03
65280;BME280;51878;55.748;48.742;2023-06-22T14:52:44;99055.34;;;26.88;28.07
65280;BME280;51878;55.748;48.742;2023-06-22T14:57:46;99021.78;;;26.09;28.43
65280;BME280;51878;55.748;48.742;2023-06-22T15:02:49;99038.84;;;25.54;29.81
65280;BME280;51878;55.748;48.742;2023-06-22T15:07:51;99050.78;;;24.67;31.05
65280;BME280;51878;55.748;48.742;2023-06-22T15:12:53;99010.22;;;23.92;32.41
65280;BME280;51878;55.748;48.742;2023-06-22T15:17:56;98968.53;;;22.21;33.66
65280;BME280;51878;55.748;48.742;2023-06-22T15:22:58;99052.69;;;21.87;34.61
65280;BME280;51878;55.748;48.742;2023-06-22T15:28:00;99029.34;;;20.40;36.91
65280;BME280;51878;55.748;48.742;2023-06-22T15:33:03;99038.06;;;19.56;39.80
65280;BME280;51878;55.748;48.742;2023-06-22T15:38:05;99052.38;;;19.36;39.70
65280;BME280;51878;55.748;48.742;2023-06-22T15:43:11;99026.44;;;18.76;40.51
65280;BME280;51878;55.748;48.742;2023-06-22T15:48:16;99057.72;;;18.58;41.19
65280;BME280;51878;55.748;48.742;2023-06-22T15:53:18;99039.03;;;18.09;41.82
65280;BME280;51878;55.748;48.742;2023-06-22T15:58:20;99044.53;;;17.69;42.18
65280;BME280;51878;55.748;48.742;2023-06-22T16:03:23;99047.59;;;17.32;43.16
65280;BME280;51878;55.748;48.742;2023-06-22T16:08:25;98989.00;;;16.62;43.99
65280;BME280;51878;55.748;48.742;2023-06-22T16:13:37;98989.34;;;16.30;44.83
65280;BME280;51878;55.748;48.742;2023-06-22T16:18:40;99018.56;;;16.18;45.79
65280;BME280;51878;55.748;48.742;2023-06-22T16:23:44;99010.22;;;15.83;46.30
65280;BME280;51878;55.748;48.742;2023-06-22T16:28:46;98984.94;;;15.39;47.39
65280;BME280;51878;55.748;48.742;2023-06-22T16:33:48;99064.84;;;15.53;48.51
65280;BME280;51878;55.748;48.742;2023-06-22T16:38:51;99030.69;;;15.06;49.05
65280;BME280;51878;55.748;48.742;2023-06-22T16:43:53;99073.63;;;14.99;49.87
65280;BME280;51878;55.748;48.742;2023-06-22T16:48:59;99056.03;;;14.70;51.29
65280;BME280;51878;55.748;48.742;2023-06-22T16:54:01;99054.25;;;14.51;52.04
65280;BME280;51878;55.748;48.742;2023-06-22T16:59:03;98995.69;;;14.03;53.28
65280;BME280;51878;55.748;48.742;2023-06-22T17:04:10;99022.69;;;14.11;53.74
65280;BME280;51878;55.748;48.742;2023-06-22T17:09:14;99022.13;;;14.02;54.19
65280;BME280;51878;55.748;48.742;2023-06-22T17:14:17;99057.69;;;14.14;55.08
65280;BME280;51878;55.748;48.742;2023-06-22T17:19:23;99066.09;;;14.06;55.94
65280;BME280;51878;55.748;48.742;2023-06-22T17:24:25;99048.19;;;13.92;56.17
65280;BME280;51878;55.748;48.742;2023-06-22T17:29:29;99065.34;;;13.92;56.86
65280;BME280;51878;55.748;48.742;2023-06-22T17:34:52;99074.84;;;13.83;57.15
65280;BME280;51878;55.748;48.742;2023-06-22T17:39:55;99072.75;;;13.85;58.00
65280;BME280;51878;55.748;48.742;2023-06-22T17:45:23;99065.63;;;13.77;58.98
65280;BME280;51878;55.748;48.742;2023-06-22T17:50:25;99065.25;;;13.74;59.32
65280;BME280;51878;55.748;48.742;2023-06-22T17:55:27;99031.81;;;13.47;59.79
65280;BME280;51878;55.748;48.742;2023-06-22T18:00:30;99038.38;;;13.39;60.21
65280;BME280;51878;55.748;48.742;2023-06-22T18:05:37;99064.53;;;13.40;60.38
65280;BME280;51878;55.748;48.742;2023-06-22T18:10:51;99027.31;;;13.07;61.22
65280;BME280;51878;55.748;48.742;2023-06-22T18:15:55;99029.41;;;12.98;61.71
65280;BME280;51878;55.748;48.742;2023-06-22T18:21:00;99050.78;;;13.01;62.46
65280;BME280;51878;55.748;48.742;2023-06-22T18:26:03;99046.19;;;12.95;62.65
65280;BME280;51878;55.748;48.742;2023-06-22T18:31:06;99047.03;;;12.89;63.13
65280;BME280;51878;55.748;48.742;2023-06-22T18:36:09;99042.66;;;12.75;63.83
65280;BME280;51878;55.748;48.742;2023-06-22T18:41:36;99053.94;;;12.72;65.13
65280;BME280;51878;55.748;48.742;2023-06-22T18:46:38;98941.06;;;11.96;68.03
65280;BME280;51878;55.748;48.742;2023-06-22T18:56:55;99040.78;;;12.35;73.00
65280;BME280;51878;55.748;48.742;2023-06-22T19:02:00;98986.19;;;11.97;76.24
65280;BME280;51878;55.748;48.742;2023-06-22T19:07:03;99010.25;;;12.00;79.36
65280;BME280;51878;55.748;48.742;2023-06-22T19:12:20;99050.41;;;12.25;79.46
65280;BME280;51878;55.748;48.742;2023-06-22T19:17:23;99021.75;;;12.15;80.76
65280;BME280;51878;55.748;48.742;2023-06-22T19:22:43;99027.59;;;12.26;81.08
65280;BME280;51878;55.748;48.742;2023-06-22T19:27:49;99030.31;;;12.32;81.20
65280;BME280;51878;55.748;48.742;2023-06-22T19:32:55;99006.91;;;12.18;80.96
65280;BME280;51878;55.748;48.742;2023-06-22T19:37:58;99031.56;;;12.36;82.30
65280;BME280;51878;55.748;48.742;2023-06-22T19:43:00;99019.03;;;12.29;82.85
65280;BME280;51878;55.748;48.742;2023-06-22T19:48:03;99035.97;;;12.31;84.78
65280;BME280;51878;55.748;48.742;2023-06-22T19:53:09;99035.75;;;12.26;85.36
65280;BME280;51878;55.748;48.742;2023-06-22T19:58:15;99014.22;;;12.11;85.36
65280;BME280;51878;55.748;48.742;2023-06-22T20:03:36;99043.06;;;12.25;85.16
65280;BME280;51878;55.748;48.742;2023-06-22T20:08:49;98973.59;;;11.83;84.89
65280;BME280;51878;55.748;48.742;2023-06-22T20:13:52;99034.50;;;12.15;84.43
65280;BME280;51878;55.748;48.742;2023-06-22T20:19:08;99060.84;;;12.28;84.87
65280;BME280;51878;55.748;48.742;2023-06-22T20:24:13;98998.31;;;12.01;83.86
65280;BME280;51878;55.748;48.742;2023-06-22T20:29:31;99051.03;;;12.40;83.52
65280;BME280;51878;55.748;48.742;2023-06-22T20:34:42;99012.34;;;12.18;82.17
65280;BME280;51878;55.748;48.742;2023-06-22T20:39:47;99013.81;;;12.20;81.13
65280;BME280;51878;55.748;48.742;2023-06-22T20:44:50;99046.44;;;12.40;80.37
65280;BME280;51878;55.748;48.742;2023-06-22T20:49:53;99044.16;;;12.37;80.10
65280;BME280;51878;55.748;48.742;2023-06-22T20:55:01;99040.16;;;12.33;80.32
65280;BME280;51878;55.748;48.742;2023-06-22T21:00:05;99009.81;;;12.10;80.95
65280;BME280;51878;55.748;48.742;2023-06-22T21:05:08;99037.63;;;12.18;81.78
65280;BME280;51878;55.748;48.742;2023-06-22T21:10:10;99033.00;;;12.06;83.14
65280;BME280;51878;55.748;48.742;2023-06-22T21:15:12;98962.69;;;11.56;83.32
65280;BME280;51878;55.748;48.742;2023-06-22T21:20:15;98983.38;;;11.64;83.74
65280;BME280;51878;55.748;48.742;2023-06-22T21:25:17;99045.50;;;11.87;84.90
65280;BME280;51878;55.748;48.742;2023-06-22T21:30:20;99006.16;;;11.69;87.08
65280;BME280;51878;55.748;48.742;2023-06-22T21:35:22;99066.22;;;12.01;87.10
65280;BME280;51878;55.748;48.742;2023-06-22T21:40:25;98982.75;;;11.62;87.99
65280;BME280;51878;55.748;48.742;2023-06-22T21:45:27;99038.19;;;11.87;89.37
65280;BME280;51878;55.748;48.742;2023-06-22T21:50:29;99058.94;;;11.95;91.44
65280;BME280;51878;55.748;48.742;2023-06-22T21:55:31;99050.78;;;11.95;91.40
65280;BME280;51878;55.748;48.742;2023-06-22T22:00:34;99044.72;;;11.93;91.43
65280;BME280;51878;55.748;48.742;2023-06-22T22:05:36;99056.63;;;11.98;91.81
65280;BME280;51878;55.748;48.742;2023-06-22T22:10:39;99054.72;;;11.99;91.85
65280;BME280;51878;55.748;48.742;2023-06-22T22:15:41;99014.78;;;11.79;91.74
65280;BME280;51878;55.748;48.742;2023-06-22T22:20:43;99039.50;;;11.98;90.60
65280;BME280;51878;55.748;48.742;2023-06-22T22:25:46;99023.75;;;11.87;91.02
65280;BME280;51878;55.748;48.742;2023-06-22T22:30:51;98999.03;;;11.62;91.78
65280;BME280;51878;55.748;48.742;2023-06-22T22:35:53;99000.94;;;11.68;93.27
65280;BME280;51878;55.748;48.742;2023-06-22T22:40:56;98986.31;;;11.62;92.83
65280;BME280;51878;55.748;48.742;2023-06-22T22:45:58;99025.84;;;11.78;93.63
65280;BME280;51878;55.748;48.742;2023-06-22T22:51:01;99046.75;;;11.84;94.35
65280;BME280;51878;55.748;48.742;2023-06-22T22:56:05;99011.34;;;11.51;95.79
65280;BME280;51878;55.748;48.742;2023-06-22T23:01:08;99025.13;;;11.56;97.88
65280;BME280;51878;55.748;48.742;2023-06-22T23:06:10;99033.91;;;11.58;100.00
65280;BME280;51878;55.748;48.742;2023-06-22T23:11:12;99026.13;;;11.48;100.00
65280;BME280;51878;55.748;48.742;2023-06-22T23:16:15;99038.28;;;11.59;100.00
65280;BME280;51878;55.748;48.742;2023-06-22T23:21:17;98967.53;;;11.06;100.00
65280;BME280;51878;55.748;48.742;2023-06-22T23:26:19;99050.41;;;11.56;100.00
65280;BME280;51878;55.748;48.742;2023-06-22T23:31:22;99051.22;;;11.57;100.00
65280;BME280;51878;55.748;48.742;2023-06-22T23:36:24;98983.25;;;11.24;100.00
65280;BME280;51878;55.748;48.742;2023-06-22T23:41:27;98994.53;;;11.27;100.00
65280;BME280;51878;55.748;48.742;2023-06-22T23:46:29;99034.00;;;11.30;100.00
65280;BME280;51878;55.748;48.742;2023-06-22T23:51:33;99016.72;;;10.96;100.00
65280;BME280;51878;55.748;48.742;2023-06-22T23:56:38;99007.34;;;10.99;100.00
